createdAt,value
2022-11-10T00:01:33.634Z,0.60
2022-11-10T00:06:56.114Z,0.50
2022-11-10T00:12:18.331Z,0.80
2022-11-10T00:17:41.554Z,1.03
2022-11-10T00:23:03.565Z,0.80
2022-11-10T00:28:25.723Z,0.70
2022-11-10T00:33:49.171Z,0.40
2022-11-10T00:39:12.204Z,0.93
2022-11-10T00:44:34.317Z,0.70
2022-11-10T00:49:57.524Z,0.40
2022-11-10T00:55:19.702Z,0.50
2022-11-10T01:00:42.631Z,0.60
2022-11-10T01:06:08.584Z,0.43
2022-11-10T01:11:30.722Z,0.93
2022-11-10T01:16:52.937Z,0.80
2022-11-10T01:22:16.438Z,0.73
2022-11-10T01:27:38.267Z,0.80
2022-11-10T01:33:00.433Z,0.60
2022-11-10T01:38:24.002Z,0.97
2022-11-10T01:43:45.977Z,0.93
2022-11-10T01:49:09.094Z,0.77
2022-11-10T01:54:37.219Z,0.87
2022-11-10T01:59:59.591Z,0.83
2022-11-10T02:05:24.174Z,1.17
2022-11-10T02:10:47.411Z,1.17
2022-11-10T02:16:10.217Z,1.00
2022-11-10T02:21:33.463Z,0.73
2022-11-10T02:26:57.187Z,0.73
2022-11-10T02:32:19.028Z,0.57
2022-11-10T02:37:42.528Z,0.70
2022-11-10T02:43:05.552Z,1.10
2022-11-10T02:48:27.884Z,0.63
2022-11-10T02:53:51.444Z,1.00
2022-11-10T02:59:13.190Z,0.97
2022-11-10T03:04:35.196Z,0.93
2022-11-10T03:09:58.779Z,1.50
2022-11-10T03:15:20.997Z,1.80
2022-11-10T03:20:43.178Z,2.47
2022-11-10T03:26:06.860Z,2.37
2022-11-10T03:31:28.931Z,2.20
2022-11-10T03:36:51.066Z,1.97
2022-11-10T03:42:14.584Z,2.03
2022-11-10T03:47:36.360Z,2.03
2022-11-10T03:52:58.523Z,1.20
2022-11-10T03:58:22.436Z,1.40
2022-11-10T04:03:48.778Z,0.97
2022-11-10T04:09:13.712Z,0.70
2022-11-10T04:15:00.076Z,1.00
2022-11-10T04:20:22.137Z,0.90
2022-11-10T04:26:06.413Z,1.17
2022-11-10T04:31:31.794Z,1.07
2022-11-10T04:36:54.059Z,0.83
2022-11-10T04:42:16.184Z,1.00
2022-11-10T04:47:39.958Z,1.37
2022-11-10T04:53:02.211Z,1.30
2022-11-10T04:58:24.529Z,1.30
2022-11-10T05:03:48.755Z,1.57
2022-11-10T05:09:11.331Z,1.70
2022-11-10T05:14:33.565Z,1.20
2022-11-10T05:19:56.885Z,1.20
2022-11-10T05:25:19.295Z,1.50
2022-11-10T05:30:42.124Z,1.70
2022-11-10T05:36:07.276Z,1.33
2022-11-10T05:41:29.856Z,1.10
2022-11-10T05:46:51.536Z,1.10
2022-11-10T05:52:15.047Z,1.13
2022-11-10T05:57:37.281Z,0.70
2022-11-10T06:03:04.077Z,0.80
2022-11-10T06:08:27.714Z,1.30
2022-11-10T06:13:49.614Z,1.10
2022-11-10T06:19:11.802Z,0.70
2022-11-10T06:24:35.016Z,1.27
2022-11-10T06:29:56.984Z,1.23
2022-11-10T06:35:19.285Z,0.70
2022-11-10T06:40:42.490Z,1.10
2022-11-10T06:46:04.504Z,1.30
2022-11-10T06:51:26.374Z,1.27
2022-11-10T06:56:50.105Z,1.47
2022-11-10T07:02:15.319Z,1.43
2022-11-10T07:07:37.317Z,1.40
2022-11-10T07:13:02.345Z,1.13
2022-11-10T07:18:24.586Z,1.10
2022-11-10T07:23:46.843Z,0.90
2022-11-10T07:29:10.420Z,1.03
2022-11-10T07:34:32.547Z,1.37
2022-11-10T07:39:54.538Z,1.67
2022-11-10T07:45:18.630Z,1.20
2022-11-10T07:50:41.167Z,1.07
2022-11-10T07:56:02.951Z,1.20
2022-11-10T08:01:26.501Z,1.33
2022-11-10T08:06:48.728Z,1.30
2022-11-10T08:12:10.957Z,1.90
2022-11-10T08:17:34.871Z,1.90
2022-11-10T08:23:00.723Z,1.20
2022-11-10T08:28:22.940Z,1.20
2022-11-10T08:33:46.244Z,1.53
2022-11-10T08:39:08.518Z,1.47
2022-11-10T08:44:30.520Z,1.20
2022-11-10T08:49:53.988Z,1.10
2022-11-10T08:55:16.625Z,1.60
2022-11-10T09:00:38.481Z,1.57
2022-11-10T09:06:01.917Z,0.93
2022-11-10T09:11:24.216Z,1.60
2022-11-10T09:16:46.368Z,1.30
2022-11-10T09:22:09.809Z,1.77
2022-11-10T09:27:32.488Z,1.07
2022-11-10T09:32:58.273Z,1.30
2022-11-10T09:38:21.723Z,1.30
2022-11-10T09:43:53.556Z,1.03
2022-11-10T09:49:29.533Z,1.13
2022-11-10T09:54:58.097Z,1.40
2022-11-10T10:00:20.747Z,1.60
2022-11-10T10:05:54.617Z,1.77
2022-11-10T10:11:31.118Z,1.80
2022-11-10T10:17:00.940Z,1.73
2022-11-10T10:22:46.629Z,1.03
2022-11-10T10:28:21.083Z,1.27
2022-11-10T10:33:43.398Z,1.70
2022-11-10T10:39:11.197Z,2.40
2022-11-10T10:44:34.792Z,1.53
2022-11-10T10:50:17.934Z,1.20
2022-11-10T10:55:46.169Z,1.20
2022-11-10T11:01:28.822Z,1.13
2022-11-10T11:06:57.760Z,1.37
2022-11-10T11:12:28.850Z,1.23
2022-11-10T11:17:59.970Z,2.00
2022-11-10T11:23:39.945Z,1.50
2022-11-10T11:29:11.458Z,1.30
2022-11-10T11:34:42.483Z,1.40
2022-11-10T11:40:15.946Z,1.30
2022-11-10T11:45:51.837Z,0.73
2022-11-10T11:51:20.021Z,1.23
2022-11-10T11:56:44.938Z,1.63
2022-11-10T12:02:33.349Z,1.70
2022-11-10T12:08:07.441Z,1.30
2022-11-10T12:13:44.079Z,1.27
2022-11-10T12:19:20.523Z,1.00
2022-11-10T12:25:07.171Z,1.20
2022-11-10T12:30:32.096Z,1.00
2022-11-10T12:35:56.992Z,1.10
2022-11-10T12:41:22.402Z,0.90
2022-11-10T12:46:51.786Z,1.87
2022-11-10T12:52:18.557Z,1.17
2022-11-10T12:57:44.195Z,1.43
2022-11-10T13:03:06.891Z,1.20
2022-11-10T13:08:44.906Z,1.80
2022-11-10T13:14:23.741Z,1.03
2022-11-10T13:19:51.678Z,1.43
2022-11-10T13:25:52.542Z,1.10
2022-11-10T13:31:51.169Z,1.00
2022-11-10T13:37:51.781Z,1.30
2022-11-10T13:43:24.939Z,1.30
2022-11-10T13:49:34.220Z,0.90
2022-11-10T13:55:30.454Z,0.83
2022-11-10T14:01:26.969Z,1.47
2022-11-10T14:06:53.023Z,1.17
2022-11-10T14:12:24.384Z,1.20
2022-11-10T14:17:51.873Z,1.03
2022-11-10T14:23:22.884Z,1.23
2022-11-10T14:28:45.071Z,1.67
2022-11-10T14:34:16.717Z,1.20
2022-11-10T14:39:39.103Z,1.23
2022-11-10T14:45:12.943Z,1.07
2022-11-10T14:50:37.237Z,1.07
2022-11-10T14:56:00.716Z,0.80
2022-11-10T15:01:29.639Z,1.77
2022-11-10T15:06:54.391Z,1.23
2022-11-10T15:12:27.784Z,1.53
2022-11-10T15:17:51.697Z,7.47
2022-11-10T15:23:23.138Z,17.83
2022-11-10T15:28:47.475Z,11.07
2022-11-10T15:34:31.425Z,5.73
2022-11-10T15:40:15.485Z,4.60
2022-11-10T15:45:38.525Z,4.70
2022-11-10T15:51:01.364Z,3.13
2022-11-10T15:56:26.361Z,3.60
2022-11-10T16:01:48.752Z,5.90
2022-11-10T16:07:12.773Z,5.27
2022-11-10T16:12:36.780Z,5.20
2022-11-10T16:17:58.710Z,4.40
2022-11-10T16:23:21.344Z,5.60
2022-11-10T16:28:47.876Z,3.30
2022-11-10T16:34:13.854Z,5.10
2022-11-10T16:39:36.222Z,5.30
2022-11-10T16:45:00.561Z,5.53
2022-11-10T16:50:31.880Z,5.90
2022-11-10T16:55:54.190Z,6.00
2022-11-10T17:01:21.930Z,4.37
2022-11-10T17:06:44.421Z,3.57
2022-11-10T17:12:07.266Z,5.60
2022-11-10T17:17:30.743Z,5.10
2022-11-10T17:22:53.881Z,3.00
2022-11-10T17:28:17.981Z,2.37
2022-11-10T17:33:41.690Z,1.83
2022-11-10T17:39:04.050Z,2.20
2022-11-10T17:44:25.798Z,2.90
2022-11-10T17:49:49.392Z,2.47
2022-11-10T17:55:18.131Z,3.50
2022-11-10T18:00:40.658Z,4.00
2022-11-10T18:06:06.775Z,3.70
2022-11-10T18:11:28.912Z,2.80
2022-11-10T18:16:50.905Z,3.10
2022-11-10T18:22:14.460Z,1.90
2022-11-10T18:27:37.461Z,2.07
2022-11-10T18:32:59.207Z,3.27
2022-11-10T18:38:22.792Z,7.00
2022-11-10T18:43:45.267Z,10.77
2022-11-10T18:49:08.289Z,3.87
2022-11-10T18:54:32.060Z,1.73
2022-11-10T18:59:54.462Z,2.93
2022-11-10T19:05:16.763Z,2.67
2022-11-10T19:10:43.732Z,2.30
2022-11-10T19:16:07.755Z,1.70
2022-11-10T19:21:30.204Z,1.80
2022-11-10T19:26:54.021Z,1.10
2022-11-10T19:32:20.799Z,2.50
2022-11-10T19:37:45.847Z,1.00
2022-11-10T19:43:10.349Z,1.40
2022-11-10T19:48:32.779Z,2.10
2022-11-10T19:53:58.572Z,2.03
2022-11-10T19:59:22.580Z,3.43
2022-11-10T20:04:58.620Z,2.07
2022-11-10T20:10:20.983Z,5.80
2022-11-10T20:15:45.071Z,2.93
2022-11-10T20:21:08.666Z,3.40
2022-11-10T20:26:30.520Z,4.63
2022-11-10T20:31:54.586Z,4.50
2022-11-10T20:37:16.870Z,4.67
2022-11-10T20:42:42.625Z,5.10
2022-11-10T20:48:07.173Z,4.90
2022-11-10T20:53:30.403Z,4.47
2022-11-10T20:58:53.954Z,3.20
2022-11-10T21:04:18.189Z,2.07
2022-11-10T21:09:40.039Z,1.73
2022-11-10T21:15:02.313Z,1.83
2022-11-10T21:20:26.299Z,1.80
2022-11-10T21:25:53.955Z,2.10
2022-11-10T21:31:15.991Z,1.30
2022-11-10T21:36:39.365Z,1.30
2022-11-10T21:42:01.453Z,1.70
2022-11-10T21:47:24.354Z,1.90
2022-11-10T21:52:48.126Z,1.30
2022-11-10T21:58:10.320Z,1.10
2022-11-10T22:03:33.784Z,1.67
2022-11-10T22:08:57.128Z,2.40
2022-11-10T22:14:36.612Z,4.77
2022-11-10T22:19:58.796Z,5.80
2022-11-10T22:25:22.210Z,3.20
2022-11-10T22:30:44.129Z,2.20
2022-11-10T22:36:09.987Z,1.97
2022-11-10T22:41:59.020Z,1.70
2022-11-10T22:47:21.131Z,2.00
2022-11-10T22:52:43.464Z,1.77
2022-11-10T22:58:07.141Z,1.80
2022-11-10T23:03:28.972Z,1.50
2022-11-10T23:08:51.233Z,1.50
2022-11-10T23:14:14.698Z,1.17
2022-11-10T23:19:36.742Z,2.00
2022-11-10T23:24:58.672Z,1.70
2022-11-10T23:30:24.226Z,1.70
2022-11-10T23:35:46.386Z,2.33
2022-11-10T23:41:12.953Z,1.77
2022-11-10T23:46:36.481Z,1.53
2022-11-10T23:51:58.544Z,2.27
2022-11-10T23:57:20.982Z,2.10
